Time;durP1;ratioP1;P1;durP2;ratioP2;P2;SDS_P1;SDS_P2;PMS_P1;PMS_P2;Temp;Humidity;BMP_temperature;BMP_pressure;BME280_temperature;BME280_humidity;BME280_pressure;Samples;Min_cycle;Max_cycle;Signal;HPM_P1;HPM_P2
2021/09/29 00:02:18;;;;;;;8.30;5.70;;;;;;;9.78;52.71;101788.78;5018980;28;20030;-68
2021/09/29 00:04:43;;;;;;;13.40;6.88;;;;;;;9.71;53.03;101789.81;5019619;28;20045;-68
2021/09/29 00:07:08;;;;;;;17.48;8.13;;;;;;;9.78;53.09;101786.19;5014176;28;20172;-67
2021/09/29 00:09:35;;;;;;;14.60;6.32;;;;;;;9.78;52.83;101783.56;5021042;28;20037;-69
2021/09/29 00:12:01;;;;;;;8.27;6.18;;;;;;;9.74;52.87;101781.91;5017583;28;20025;-68
2021/09/29 00:14:26;;;;;;;14.75;7.20;;;;;;;9.64;53.13;101783.03;5018730;28;20017;-71
2021/09/29 00:16:52;;;;;;;13.55;6.85;;;;;;;9.76;53.05;101769.69;5018949;28;20132;-70
2021/09/29 00:19:17;;;;;;;11.43;6.57;;;;;;;9.64;53.43;101767.38;5021404;28;20097;-69
2021/09/29 00:21:43;;;;;;;11.43;7.10;;;;;;;9.50;53.80;101769.41;5021190;28;20120;-69
2021/09/29 00:24:09;;;;;;;17.95;8.25;;;;;;;9.50;53.48;101774.63;5020288;28;20060;-67
2021/09/29 00:26:34;;;;;;;13.07;6.88;;;;;;;9.69;53.05;101765.50;5018504;28;20454;-68
2021/09/29 00:29:00;;;;;;;15.38;6.93;;;;;;;9.73;52.96;101771.53;5017958;28;20032;-73
2021/09/29 00:36:36;;;;;;;11.27;7.65;;;;;;;9.67;53.07;101762.06;5022985;28;20037;-73
2021/09/29 00:39:02;;;;;;;22.02;6.97;;;;;;;9.59;53.35;101761.41;4998089;28;20033;-73
2021/09/29 00:41:28;;;;;;;19.33;7.03;;;;;;;9.74;53.35;101752.34;5020374;28;20491;-72
2021/09/29 00:43:54;;;;;;;12.00;6.75;;;;;;;9.76;52.96;101761.00;5021767;28;20103;-73
2021/09/29 00:46:19;;;;;;;15.85;8.20;;;;;;;9.70;53.74;101743.75;5021671;28;20149;-73
2021/09/29 00:48:45;;;;;;;12.15;6.78;;;;;;;9.76;53.43;101738.34;5021103;28;20034;-73
2021/09/29 00:51:10;;;;;;;13.23;7.20;;;;;;;9.84;53.05;101737.38;5018332;28;20041;-75
2021/09/29 00:53:37;;;;;;;16.70;7.25;;;;;;;9.93;52.77;101737.16;5033610;28;20503;-71
2021/09/29 00:56:04;;;;;;;10.65;6.95;;;;;;;9.87;53.09;101727.72;5016402;28;20456;-70
2021/09/29 00:58:29;;;;;;;12.57;7.97;;;;;;;9.79;53.37;101727.00;5023039;28;20045;-71
2021/09/29 01:00:55;;;;;;;10.63;6.95;;;;;;;9.88;53.15;101723.34;5019986;28;20047;-70
2021/09/29 01:03:22;;;;;;;10.32;7.68;;;;;;;9.69;53.79;101718.53;5006008;28;20029;-69
2021/09/29 01:05:50;;;;;;;12.88;7.22;;;;;;;9.78;53.38;101713.06;5022718;28;20482;-71
2021/09/29 01:08:23;;;;;;;9.05;7.55;;;;;;;9.77;53.37;101711.38;5037602;28;20134;-73
2021/09/29 01:10:58;;;;;;;12.82;7.28;;;;;;;9.80;53.54;101710.47;5022311;28;20124;-72
2021/09/29 01:13:47;;;;;;;11.77;7.20;;;;;;;9.75;53.77;101713.16;5018671;28;20599;-72
2021/09/29 01:16:14;;;;;;;16.15;8.30;;;;;;;9.70;53.94;101694.16;5020666;28;20101;-73
2021/09/29 01:18:46;;;;;;;14.45;8.10;;;;;;;9.54;54.36;101698.88;5022773;28;20473;-71
2021/09/29 01:21:14;;;;;;;17.92;8.65;;;;;;;9.78;53.51;101692.19;5017433;28;20410;-72
2021/09/29 01:24:08;;;;;;;13.07;7.60;;;;;;;9.85;53.50;101695.56;5019687;28;20033;-72
2021/09/29 01:26:36;;;;;;;16.73;7.55;;;;;;;9.70;54.18;101688.03;5024233;28;20163;-75
2021/09/29 01:29:08;;;;;;;17.67;9.32;;;;;;;9.74;53.59;101684.47;5003735;28;20048;-72
2021/09/29 01:31:34;;;;;;;11.02;7.43;;;;;;;9.82;53.93;101681.72;5017367;28;20049;-73
2021/09/29 01:34:01;;;;;;;20.52;9.82;;;;;;;9.72;54.05;101687.13;5022892;28;20523;-77
2021/09/29 01:36:27;;;;;;;18.25;7.90;;;;;;;9.72;54.20;101679.31;5023156;28;20185;-70
2021/09/29 01:38:57;;;;;;;19.67;8.57;;;;;;;9.75;54.11;101681.84;5013900;28;20127;-69
2021/09/29 01:41:25;;;;;;;17.75;7.90;;;;;;;9.84;54.01;101674.72;5020318;28;20171;-68
2021/09/29 01:43:51;;;;;;;16.38;8.93;;;;;;;9.83;53.38;101673.84;5019656;28;20531;-68
2021/09/29 01:46:17;;;;;;;13.23;7.93;;;;;;;9.80;54.01;101668.69;5022217;28;20394;-68
2021/09/29 01:49:06;;;;;;;15.05;8.23;;;;;;;9.84;53.43;101659.06;5020787;28;20045;-69
2021/09/29 01:51:36;;;;;;;13.07;7.88;;;;;;;9.82;53.44;101666.91;5021312;28;20120;-69
2021/09/29 01:54:03;;;;;;;13.73;8.57;;;;;;;9.69;53.88;101661.09;5018279;28;20047;-68
2021/09/29 01:56:30;;;;;;;13.68;8.38;;;;;;;9.73;53.57;101654.91;5006474;28;20033;-66
2021/09/29 01:58:56;;;;;;;12.90;8.52;;;;;;;9.64;53.92;101649.91;5034921;28;20025;-66
2021/09/29 02:01:22;;;;;;;12.50;7.45;;;;;;;9.63;53.94;101647.31;5020626;28;20025;-69
2021/09/29 02:03:47;;;;;;;11.02;7.65;;;;;;;9.74;53.53;101643.56;5018866;28;20037;-67
2021/09/29 02:06:13;;;;;;;14.90;8.32;;;;;;;9.69;53.73;101640.22;5020675;28;20044;-66
2021/09/29 02:08:39;;;;;;;19.52;8.93;;;;;;;9.68;53.76;101638.50;4999763;28;20251;-66
2021/09/29 02:11:05;;;;;;;16.70;7.95;;;;;;;9.54;53.75;101631.00;5019130;28;20076;-68
2021/09/29 02:13:31;;;;;;;18.02;8.20;;;;;;;9.69;53.60;101637.59;5019980;28;20040;-68
2021/09/29 02:15:57;;;;;;;15.52;8.73;;;;;;;9.55;53.72;101632.72;5017533;28;20033;-68
2021/09/29 02:18:22;;;;;;;18.88;8.85;;;;;;;9.65;53.57;101633.34;5015354;28;20347;-69
2021/09/29 02:20:48;;;;;;;15.07;8.75;;;;;;;9.69;53.27;101632.38;5018454;28;20117;-69
2021/09/29 02:23:13;;;;;;;18.10;8.40;;;;;;;9.68;53.35;101628.06;5021537;28;20029;-68
2021/09/29 02:25:39;;;;;;;17.85;8.75;;;;;;;9.47;53.91;101623.34;5016285;28;20399;-69
2021/09/29 02:28:04;;;;;;;13.65;8.20;;;;;;;9.64;53.41;101615.97;5020677;28;20049;-69
2021/09/29 02:30:30;;;;;;;16.67;9.73;;;;;;;9.55;53.69;101616.19;5021883;28;20041;-68
2021/09/29 02:32:55;;;;;;;17.00;9.50;;;;;;;9.54;53.83;101614.47;5033570;28;20394;-68
2021/09/29 02:35:21;;;;;;;17.13;8.75;;;;;;;9.59;53.70;101607.41;5019377;28;20032;-71
2021/09/29 02:37:46;;;;;;;16.65;8.15;;;;;;;9.57;53.29;101614.41;5016865;28;20045;-72
2021/09/29 02:40:12;;;;;;;12.35;8.10;;;;;;;9.57;53.48;101614.41;5020588;28;20103;-72
2021/09/29 02:42:38;;;;;;;14.30;8.32;;;;;;;9.48;53.57;101604.19;5020165;28;20041;-69
2021/09/29 02:45:04;;;;;;;16.90;8.50;;;;;;;9.40;54.01;101592.16;5018706;28;20124;-70
2021/09/29 02:47:30;;;;;;;14.25;7.97;;;;;;;9.59;53.62;101602.19;5020214;28;20119;-71
2021/09/29 02:49:56;;;;;;;13.88;8.43;;;;;;;9.49;53.76;101591.09;4998108;28;20104;-72
2021/09/29 02:52:21;;;;;;;16.92;9.10;;;;;;;9.46;54.03;101590.34;5014931;28;20378;-71
2021/09/29 02:54:47;;;;;;;27.67;9.63;;;;;;;9.42;54.24;101578.25;5003894;28;20069;-72
2021/09/29 02:57:12;;;;;;;19.48;8.75;;;;;;;9.32;54.35;101583.69;5020772;28;20048;-68
2021/09/29 02:59:38;;;;;;;16.17;8.13;;;;;;;9.31;54.32;101581.94;5020567;28;20037;-67
2021/09/29 03:02:03;;;;;;;11.93;7.85;;;;;;;9.40;54.00;101579.13;5019672;28;20265;-68
2021/09/29 03:04:29;;;;;;;16.20;8.20;;;;;;;9.53;53.85;101584.06;5017405;28;20037;-73
2021/09/29 03:06:54;;;;;;;18.95;9.40;;;;;;;9.52;53.86;101580.59;5017069;28;20080;-69
2021/09/29 03:09:20;;;;;;;14.05;8.30;;;;;;;9.18;55.25;101576.16;5018760;28;20380;-69
2021/09/29 03:11:45;;;;;;;15.52;9.63;;;;;;;9.54;54.14;101575.31;5016256;28;20033;-70
2021/09/29 03:14:11;;;;;;;20.73;8.90;;;;;;;9.56;53.91;101566.56;5019738;28;20037;-70
2021/09/29 03:16:36;;;;;;;18.42;8.50;;;;;;;9.69;53.55;101567.13;5020961;28;20037;-68
2021/09/29 03:19:02;;;;;;;15.00;9.10;;;;;;;9.71;53.39;101572.31;5019902;28;20051;-75
2021/09/29 03:21:28;;;;;;;15.18;8.25;;;;;;;9.59;53.84;101570.88;5015758;28;20050;-74
2021/09/29 03:23:54;;;;;;;15.15;8.75;;;;;;;9.49;54.15;101565.00;5013225;28;20040;-75
2021/09/29 03:26:20;;;;;;;17.83;9.23;;;;;;;9.58;53.82;101569.13;5022255;28;20029;-71
2021/09/29 03:28:45;;;;;;;16.27;8.18;;;;;;;9.56;54.10;101561.34;5019825;28;20163;-69
2021/09/29 03:31:12;;;;;;;15.00;8.98;;;;;;;9.63;53.68;101566.41;5020009;28;20045;-71
2021/09/29 03:33:38;;;;;;;13.95;8.60;;;;;;;9.59;53.84;101560.44;5021533;28;20041;-71
2021/09/29 03:36:03;;;;;;;19.90;9.13;;;;;;;9.49;53.98;101553.72;5018890;28;20038;-73
2021/09/29 03:38:29;;;;;;;16.98;9.25;;;;;;;9.60;53.77;101546.47;5021434;28;20045;-76
2021/09/29 03:40:54;;;;;;;18.17;10.68;;;;;;;9.40;54.37;101553.03;5018895;28;20029;-75
2021/09/29 03:43:20;;;;;;;19.15;8.30;;;;;;;9.56;53.74;101537.84;5007769;28;20037;-77
2021/09/29 03:45:47;;;;;;;18.23;9.18;;;;;;;9.40;53.95;101540.00;5019832;28;20045;-73
2021/09/29 03:48:13;;;;;;;14.07;8.65;;;;;;;9.53;53.88;101539.69;5003091;28;20068;-71
2021/09/29 03:50:38;;;;;;;11.27;7.03;;;;;;;9.53;53.57;101542.31;5018950;28;20458;-71
2021/09/29 03:53:04;;;;;;;15.77;9.05;;;;;;;9.49;53.61;101538.06;5019130;28;20096;-69
2021/09/29 03:55:30;;;;;;;14.55;8.82;;;;;;;9.37;53.86;101534.84;5020061;28;20044;-68
2021/09/29 03:57:55;;;;;;;17.63;9.77;;;;;;;9.39;54.24;101524.41;5020131;28;20029;-69
2021/09/29 04:00:21;;;;;;;15.30;8.73;;;;;;;9.44;53.66;101527.72;5018597;28;20033;-69
2021/09/29 04:02:46;;;;;;;20.67;9.10;;;;;;;9.39;54.05;101525.25;4997749;28;20426;-73
2021/09/29 04:05:12;;;;;;;13.82;9.52;;;;;;;9.34;54.17;101527.13;5021371;28;20201;-70
2021/09/29 04:07:39;;;;;;;16.73;8.52;;;;;;;9.39;54.16;101521.78;5002966;28;20038;-70
2021/09/29 04:10:05;;;;;;;15.02;9.50;;;;;;;9.41;54.14;101520.00;5020342;28;20026;-70
2021/09/29 04:12:31;;;;;;;16.98;8.27;;;;;;;9.46;53.87;101514.66;5019840;28;20037;-71
2021/09/29 04:14:56;;;;;;;14.77;8.50;;;;;;;9.45;53.51;101511.16;5018900;28;20096;-72
2021/09/29 04:17:22;;;;;;;15.73;8.25;;;;;;;9.45;53.77;101512.94;5021271;28;20063;-71
2021/09/29 04:19:47;;;;;;;15.38;8.55;;;;;;;9.24;54.79;101507.34;5018801;28;20041;-73
2021/09/29 04:22:13;;;;;;;14.00;9.02;;;;;;;9.32;54.26;101505.44;5022408;28;20049;-71
2021/09/29 04:24:40;;;;;;;13.57;9.02;;;;;;;9.43;53.78;101502.53;5025303;28;20033;-73
2021/09/29 04:27:08;;;;;;;13.93;8.40;;;;;;;9.47;53.74;101508.53;5039828;28;20121;-73
2021/09/29 04:29:33;;;;;;;17.77;9.02;;;;;;;9.54;53.50;101502.25;5034376;28;20483;-71
2021/09/29 04:31:59;;;;;;;14.18;8.60;;;;;;;9.49;53.73;101504.97;5018937;28;20037;-71
2021/09/29 04:34:24;;;;;;;13.52;7.63;;;;;;;9.51;53.58;101507.56;5007394;28;20037;-71
2021/09/29 04:36:50;;;;;;;15.70;8.32;;;;;;;9.49;53.69;101496.31;5016085;28;20033;-70
2021/09/29 04:39:16;;;;;;;15.27;8.57;;;;;;;9.43;53.88;101491.22;5020235;28;20086;-70
2021/09/29 04:41:42;;;;;;;15.93;10.10;;;;;;;9.40;54.15;101493.03;5023966;28;20129;-65
2021/09/29 04:44:07;;;;;;;15.45;8.27;;;;;;;9.30;54.10;101486.34;5022733;28;20034;-70
2021/09/29 04:46:33;;;;;;;20.33;9.30;;;;;;;9.44;53.51;101483.38;5023860;28;20537;-68
2021/09/29 04:48:59;;;;;;;17.55;9.43;;;;;;;9.34;54.08;101479.28;5020941;28;20457;-69
2021/09/29 04:51:24;;;;;;;16.60;8.57;;;;;;;9.45;53.87;101481.63;5024908;28;20581;-67
2021/09/29 04:53:50;;;;;;;10.90;8.32;;;;;;;9.29;54.25;101479.41;5021860;28;20030;-68
2021/09/29 04:56:15;;;;;;;13.63;8.45;;;;;;;9.36;53.84;101475.72;5024338;28;20033;-65
2021/09/29 04:58:43;;;;;;;13.77;8.25;;;;;;;9.40;53.74;101479.13;5018766;28;20044;-66
2021/09/29 05:01:10;;;;;;;14.43;8.70;;;;;;;9.42;53.49;101472.13;5022838;28;20386;-68
2021/09/29 05:03:36;;;;;;;15.68;9.00;;;;;;;9.43;53.46;101462.53;5022999;28;20647;-69
2021/09/29 05:06:02;;;;;;;24.45;10.48;;;;;;;9.45;54.02;101465.97;5018815;28;20704;-69
2021/09/29 05:08:32;;;;;;;12.05;7.47;;;;;;;9.41;53.79;101465.22;5006935;28;20041;-69
2021/09/29 05:11:07;;;;;;;12.57;7.72;;;;;;;9.36;54.08;101454.00;5020065;28;20105;-72
2021/09/29 05:13:34;;;;;;;15.50;8.55;;;;;;;9.45;53.89;101453.75;5020837;28;20120;-75
2021/09/29 05:16:01;;;;;;;17.55;7.95;;;;;;;9.51;52.98;101457.97;5019424;28;20060;-72
2021/09/29 05:18:27;;;;;;;13.05;8.48;;;;;;;9.40;53.73;101459.09;4998250;28;20412;-71
2021/09/29 05:20:53;;;;;;;15.40;7.93;;;;;;;9.44;53.46;101453.81;5020823;28;20021;-71
2021/09/29 05:23:19;;;;;;;15.57;9.00;;;;;;;9.30;53.52;101460.25;5022658;28;20037;-71
2021/09/29 05:25:45;;;;;;;17.33;8.20;;;;;;;9.39;53.45;101453.94;5036907;28;20132;-71
2021/09/29 05:28:17;;;;;;;13.32;7.18;;;;;;;9.26;53.65;101449.94;5021363;28;20398;-73
2021/09/29 05:30:44;;;;;;;11.57;7.38;;;;;;;9.32;54.20;101449.75;5020470;28;20040;-67
2021/09/29 05:33:09;;;;;;;18.17;8.40;;;;;;;9.38;53.70;101442.63;5039138;28;20025;-71
2021/09/29 05:35:35;;;;;;;10.77;6.75;;;;;;;9.34;53.75;101437.53;5021008;28;20561;-74
2021/09/29 05:38:00;;;;;;;15.05;8.32;;;;;;;9.36;53.57;101434.00;5037869;28;20048;-72
2021/09/29 05:40:26;;;;;;;14.98;8.23;;;;;;;9.24;53.94;101434.31;5006586;28;20029;-72
2021/09/29 05:42:51;;;;;;;13.70;7.75;;;;;;;9.35;53.72;101437.50;4998298;28;20109;-72
2021/09/29 05:45:17;;;;;;;16.77;8.52;;;;;;;9.43;53.64;101433.84;5019712;28;20064;-72
2021/09/29 05:47:42;;;;;;;12.90;6.80;;;;;;;9.49;53.44;101428.47;5016706;28;20047;-72
2021/09/29 05:50:09;;;;;;;18.58;8.82;;;;;;;9.48;53.47;101431.97;5022311;28;20029;-72
2021/09/29 05:52:35;;;;;;;15.27;7.78;;;;;;;9.49;53.47;101424.09;5020135;28;20775;-73
2021/09/29 05:55:00;;;;;;;14.00;7.53;;;;;;;9.60;53.12;101426.41;5020306;28;20041;-73
2021/09/29 05:57:26;;;;;;;15.07;7.88;;;;;;;9.49;53.77;101425.84;5021879;28;20036;-76
2021/09/29 05:59:51;;;;;;;10.40;6.68;;;;;;;9.63;53.50;101420.25;5020772;28;20063;-76
2021/09/29 06:02:17;;;;;;;13.27;7.72;;;;;;;9.60;52.96;101416.81;5001171;28;20108;-76
2021/09/29 06:04:43;;;;;;;14.13;7.03;;;;;;;9.48;53.70;101411.97;5021453;28;20641;-76
2021/09/29 06:07:11;;;;;;;14.07;7.53;;;;;;;9.47;53.68;101406.78;5017523;28;20132;-77
2021/09/29 06:09:40;;;;;;;14.68;7.88;;;;;;;9.55;53.54;101413.50;5022079;28;20033;-74
2021/09/29 06:12:10;;;;;;;11.27;7.93;;;;;;;9.67;53.25;101399.25;5020175;28;20037;-68
2021/09/29 06:14:36;;;;;;;14.88;7.57;;;;;;;9.72;53.30;101404.34;5017594;28;20040;-68
2021/09/29 06:17:12;;;;;;;13.45;7.93;;;;;;;9.58;53.59;101402.97;5021695;28;20326;-68
2021/09/29 06:19:39;;;;;;;9.38;6.75;;;;;;;9.76;52.82;101393.75;5033190;28;20068;-68
2021/09/29 06:22:07;;;;;;;12.20;7.65;;;;;;;9.69;53.46;101400.06;5019951;28;20096;-68
2021/09/29 06:24:33;;;;;;;11.45;7.00;;;;;;;9.74;52.78;101397.31;5018410;28;20726;-68
2021/09/29 06:26:59;;;;;;;12.98;6.97;;;;;;;9.82;53.03;101390.16;5002834;28;20045;-71
2021/09/29 06:29:24;;;;;;;18.08;7.88;;;;;;;9.90;52.71;101400.38;4998906;28;20033;-68
2021/09/29 06:31:52;;;;;;;14.23;6.63;;;;;;;10.05;52.56;101391.25;5020542;28;20041;-68
2021/09/29 06:34:18;;;;;;;10.70;6.40;;;;;;;10.10;52.60;101390.22;5015669;28;20399;-69
2021/09/29 06:36:43;;;;;;;13.73;7.22;;;;;;;10.18;52.47;101393.44;5021989;28;20045;-69
2021/09/29 06:39:09;;;;;;;15.23;8.50;;;;;;;10.26;52.20;101394.97;5014857;28;20659;-68
2021/09/29 06:41:35;;;;;;;11.85;6.80;;;;;;;10.37;51.89;101387.66;5022132;28;20048;-67
2021/09/29 06:44:00;;;;;;;12.43;6.60;;;;;;;10.35;51.63;101384.25;5020062;28;20037;-70
2021/09/29 06:46:26;;;;;;;19.52;6.80;;;;;;;10.34;51.44;101379.91;5020644;28;20029;-72
2021/09/29 06:48:51;;;;;;;11.00;7.15;;;;;;;10.40;51.38;101371.91;5021405;28;20093;-69
2021/09/29 06:51:17;;;;;;;12.50;6.78;;;;;;;10.49;51.15;101366.38;5020008;28;20172;-69
2021/09/29 06:53:42;;;;;;;14.57;6.40;;;;;;;10.51;51.37;101367.19;5033115;28;20025;-70
2021/09/29 06:56:08;;;;;;;11.10;6.63;;;;;;;10.60;50.86;101363.44;5020253;28;20401;-70
2021/09/29 06:58:34;;;;;;;15.48;6.30;;;;;;;10.55;51.43;101368.81;5015054;28;20553;-70
2021/09/29 07:00:59;;;;;;;10.57;6.40;;;;;;;10.62;50.77;101369.47;5019560;28;20489;-71
2021/09/29 07:03:25;;;;;;;11.65;6.53;;;;;;;10.62;51.03;101372.94;5022562;28;20033;-70
2021/09/29 07:05:51;;;;;;;10.80;6.13;;;;;;;10.61;50.85;101379.03;5001047;28;20650;-69
2021/09/29 07:08:16;;;;;;;14.15;6.03;;;;;;;10.54;51.45;101374.91;5036029;28;20034;-71
2021/09/29 07:10:42;;;;;;;9.98;6.47;;;;;;;10.75;50.46;101368.16;5021982;28;20161;-70
2021/09/29 07:13:10;;;;;;;12.88;6.35;;;;;;;10.96;50.66;101361.38;5016775;28;20033;-70
2021/09/29 07:15:35;;;;;;;7.53;5.57;;;;;;;10.97;50.60;101360.50;5022030;28;20048;-69
2021/09/29 07:18:01;;;;;;;11.48;5.63;;;;;;;10.84;50.45;101370.50;5014633;28;20406;-69
2021/09/29 07:20:28;;;;;;;13.70;5.50;;;;;;;10.98;50.54;101363.94;5019030;28;20132;-71
2021/09/29 07:22:54;;;;;;;12.27;5.70;;;;;;;11.15;50.05;101365.97;5019132;28;20044;-70
2021/09/29 07:25:20;;;;;;;8.80;5.35;;;;;;;11.23;49.67;101359.56;5016591;28;20073;-67
2021/09/29 07:27:46;;;;;;;9.63;5.30;;;;;;;11.44;49.31;101363.22;5019190;28;20037;-69
2021/09/29 07:30:12;;;;;;;12.57;5.72;;;;;;;11.41;49.48;101358.06;5020367;28;20292;-70
2021/09/29 07:32:38;;;;;;;9.63;5.57;;;;;;;11.63;48.77;101362.53;5016226;28;20338;-70
2021/09/29 07:35:04;;;;;;;11.48;5.63;;;;;;;11.88;48.70;101365.13;5001853;28;21654;-68
2021/09/29 07:37:30;;;;;;;10.45;5.90;;;;;;;12.00;48.02;101355.94;5017773;28;20409;-69
2021/09/29 07:39:56;;;;;;;9.48;4.95;;;;;;;12.10;47.77;101354.69;5019641;28;20090;-67
2021/09/29 07:42:21;;;;;;;10.35;5.32;;;;;;;12.11;47.42;101352.91;5014591;28;20029;-69
2021/09/29 07:44:47;;;;;;;7.53;5.10;;;;;;;12.10;47.81;101344.19;5016878;28;20147;-68
2021/09/29 07:47:12;;;;;;;8.50;5.53;;;;;;;12.13;47.79;101338.81;5015210;28;20094;-67
2021/09/29 07:49:38;;;;;;;11.00;5.43;;;;;;;12.28;47.55;101340.84;5021244;28;20056;-69
2021/09/29 07:52:04;;;;;;;9.60;5.50;;;;;;;12.36;46.94;101331.84;5024481;28;20805;-68
2021/09/29 07:54:30;;;;;;;11.20;5.85;;;;;;;12.18;47.84;101338.63;5023972;28;20547;-70
2021/09/29 07:56:55;;;;;;;9.70;4.85;;;;;;;11.96;48.03;101329.00;5027032;28;20033;-69
2021/09/29 07:59:22;;;;;;;10.77;5.80;;;;;;;12.45;47.24;101326.22;5024655;28;20029;-69
2021/09/29 08:01:51;;;;;;;13.80;5.82;;;;;;;12.60;46.25;101325.59;5041225;28;20041;-70
2021/09/29 08:04:20;;;;;;;4.85;4.13;;;;;;;11.91;48.32;101335.31;5023003;28;20061;-67
2021/09/29 08:06:46;;;;;;;7.25;4.78;;;;;;;12.55;47.74;101326.69;5019201;28;20503;-68
2021/09/29 08:09:12;;;;;;;9.23;5.40;;;;;;;13.14;46.11;101320.72;5018467;28;20096;-69
2021/09/29 08:11:37;;;;;;;11.80;5.63;;;;;;;13.36;45.23;101318.00;5026508;28;20041;-68
2021/09/29 08:14:03;;;;;;;7.05;4.60;;;;;;;13.21;45.50;101311.66;5022731;28;20223;-70
2021/09/29 08:16:28;;;;;;;12.70;4.97;;;;;;;13.11;45.67;101305.09;5036126;28;20269;-67
2021/09/29 08:18:54;;;;;;;11.45;4.75;;;;;;;12.93;45.90;101306.75;5022985;28;20068;-68
2021/09/29 08:21:26;;;;;;;9.55;4.53;;;;;;;12.50;46.96;101308.53;5019821;28;20470;-67
2021/09/29 08:23:54;;;;;;;7.35;4.68;;;;;;;12.74;46.92;101304.06;5021615;28;20033;-68
2021/09/29 08:31:38;;;;;;;12.32;4.22;;;;;;;13.04;45.41;101291.38;5025341;28;20026;-68
2021/09/29 08:34:13;;;;;;;7.72;4.35;;;;;;;13.00;46.75;101291.59;5025089;28;20037;-69
2021/09/29 08:47:14;;;;;;;6.78;4.22;;;;;;;13.79;44.77;101286.31;5014536;28;20060;-67
2021/09/29 08:50:10;;;;;;;8.18;4.72;;;;;;;13.84;44.74;101285.16;5025529;28;20080;-69
2021/09/29 08:55:29;;;;;;;9.43;4.35;;;;;;;14.20;44.23;101280.84;5023496;28;20037;-69
2021/09/29 09:17:35;;;;;;;4.80;3.15;;;;;;;14.79;42.43;101263.88;5024061;28;20103;-68
2021/09/29 09:20:24;;;;;;;6.50;3.53;;;;;;;15.56;41.16;101255.38;5020755;28;20033;-67
2021/09/29 09:22:53;;;;;;;8.55;3.80;;;;;;;15.25;41.27;101255.38;5022940;28;20049;-66
2021/09/29 09:25:41;;;;;;;5.13;3.00;;;;;;;15.36;40.93;101261.75;5036933;28;20525;-68
2021/09/29 09:28:14;;;;;;;5.22;2.90;;;;;;;15.56;41.82;101255.38;5017484;28;20042;-69
2021/09/29 09:30:40;;;;;;;6.45;3.75;;;;;;;15.58;40.96;101256.16;5023131;28;20971;-68
2021/09/29 09:33:06;;;;;;;6.00;3.03;;;;;;;15.55;39.96;101251.06;5014825;28;20037;-69
2021/09/29 09:35:44;;;;;;;6.15;2.88;;;;;;;15.79;39.83;101253.25;5022751;28;20041;-69
2021/09/29 09:38:18;;;;;;;6.93;2.92;;;;;;;16.19;39.99;101248.38;5020010;28;20037;-67
2021/09/29 09:40:44;;;;;;;5.82;2.88;;;;;;;17.14;39.70;101231.31;5022112;28;20571;-68
2021/09/29 09:43:12;;;;;;;6.68;2.80;;;;;;;17.09;37.61;101233.38;5018996;28;20038;-68
2021/09/29 09:45:43;;;;;;;4.38;2.38;;;;;;;16.58;38.49;101236.44;5022056;28;20033;-68
2021/09/29 09:48:26;;;;;;;6.87;2.57;;;;;;;16.13;39.18;101225.88;5021049;28;20045;-69
2021/09/29 09:51:15;;;;;;;3.55;2.30;;;;;;;15.53;40.34;101223.94;5013252;28;20459;-69
2021/09/29 09:53:52;;;;;;;9.57;3.47;;;;;;;14.43;43.04;101225.34;5037061;28;20037;-69
2021/09/29 09:56:25;;;;;;;7.72;3.30;;;;;;;14.64;42.18;101223.41;5021185;28;20472;-68
2021/09/29 09:58:56;;;;;;;7.95;2.67;;;;;;;14.77;41.73;101221.00;5019581;28;20033;-68
2021/09/29 10:01:25;;;;;;;4.45;3.30;;;;;;;14.03;43.35;101221.19;5022297;28;20561;-67
2021/09/29 10:03:51;;;;;;;11.68;3.50;;;;;;;14.40;43.17;101220.22;5020755;28;20033;-68
2021/09/29 10:06:19;;;;;;;8.50;2.75;;;;;;;14.09;43.70;101215.66;5021861;28;20033;-69
2021/09/29 10:08:51;;;;;;;7.22;3.90;;;;;;;14.20;43.52;101204.59;5014097;28;20033;-68
2021/09/29 10:11:24;;;;;;;5.63;2.58;;;;;;;13.92;43.96;101208.63;5021736;28;20030;-69
2021/09/29 10:27:38;;;;;;;11.32;3.08;;;;;;;13.72;45.64;101196.44;5021131;28;20132;-69
2021/09/29 10:30:10;;;;;;;5.68;2.50;;;;;;;14.02;44.40;101191.44;5018542;28;20065;-68
2021/09/29 10:32:58;;;;;;;4.70;2.13;;;;;;;13.85;44.84;101184.41;5005000;28;20076;-71
2021/09/29 10:35:33;;;;;;;4.25;2.60;;;;;;;13.88;44.86;101181.63;5019071;28;20041;-68
2021/09/29 10:46:41;;;;;;;6.63;2.30;;;;;;;13.81;45.78;101172.34;5016527;28;20029;-69
2021/09/29 10:52:07;;;;;;;6.63;2.92;;;;;;;14.06;45.36;101163.25;5011968;28;20041;-70
2021/09/29 11:30:23;;;;;;;5.97;1.35;;;;;;;14.23;45.45;101133.47;5014535;28;20037;-69
2021/09/29 11:33:20;;;;;;;9.27;3.13;;;;;;;13.89;45.80;101136.03;5014607;28;20439;-67
2021/09/29 11:35:59;;;;;;;4.68;1.27;;;;;;;13.61;46.42;101133.06;5016495;28;20057;-70
2021/09/29 12:08:45;;;;;;;7.38;3.45;;;;;;;12.03;55.03;101125.28;5016594;28;20152;-69
2021/09/29 12:11:19;;;;;;;10.80;3.47;;;;;;;12.13;55.22;101116.09;5030936;28;20615;-68
2021/09/29 12:16:35;;;;;;;6.97;3.25;;;;;;;12.36;54.29;101111.66;5016424;28;20507;-69
2021/09/29 12:19:10;;;;;;;5.47;2.72;;;;;;;12.26;54.98;101112.03;5015011;28;20033;-68
2021/09/29 12:21:50;;;;;;;8.55;3.35;;;;;;;12.24;55.03;101106.00;5015875;28;20510;-68
2021/09/29 12:24:58;;;;;;;4.10;3.08;;;;;;;12.40;55.02;101097.47;5014940;28;20041;-68
2021/09/29 12:27:39;;;;;;;10.38;4.05;;;;;;;12.53;55.08;101092.56;5018283;28;20096;-69
2021/09/29 12:30:33;;;;;;;5.70;3.53;;;;;;;12.56;54.36;101088.03;5014907;28;20060;-67
2021/09/29 12:35:44;;;;;;;6.00;3.75;;;;;;;12.34;54.61;101087.28;5016387;28;20478;-68
2021/09/29 12:38:12;;;;;;;5.68;4.38;;;;;;;12.63;54.38;101089.44;5020452;28;20352;-68
2021/09/29 12:40:41;;;;;;;8.95;6.20;;;;;;;12.61;54.55;101079.97;5016397;28;20119;-70
2021/09/29 12:43:16;;;;;;;6.63;4.60;;;;;;;12.51;54.15;101082.13;5019716;28;20030;-67
2021/09/29 12:45:46;;;;;;;6.60;3.65;;;;;;;12.56;54.23;101069.69;5019934;28;20422;-70
2021/09/29 12:48:13;;;;;;;7.03;3.88;;;;;;;12.53;53.77;101075.03;5019770;28;20029;-67
2021/09/29 12:50:59;;;;;;;8.82;4.70;;;;;;;12.44;54.03;101072.84;5017403;28;20796;-71
2021/09/29 12:53:32;;;;;;;5.70;4.43;;;;;;;12.18;55.32;101077.47;5019904;28;20132;-68
2021/09/29 12:56:12;;;;;;;4.55;4.15;;;;;;;12.44;54.86;101071.06;5018150;28;20033;-68
2021/09/29 12:58:39;;;;;;;9.65;5.10;;;;;;;11.80;56.13;101095.69;4999318;28;20091;-71
2021/09/29 13:01:05;;;;;;;10.70;4.75;;;;;;;11.29;57.15;101120.38;5013768;28;20048;-71
2021/09/29 13:03:38;;;;;;;2.28;1.38;;;;;;;10.18;58.75;101116.56;5019245;28;20120;-70
2021/09/29 13:06:05;;;;;;;4.18;0.85;;;;;;;10.32;57.62;101116.06;5019886;28;20526;-71
2021/09/29 13:08:30;;;;;;;1.55;0.70;;;;;;;9.88;59.13;101112.38;5019333;28;20033;-71
2021/09/29 13:10:58;;;;;;;1.40;0.75;;;;;;;9.79;59.23;101114.41;5019022;28;20059;-70
2021/09/29 13:13:24;;;;;;;1.83;0.50;;;;;;;10.57;57.47;101123.91;5022187;28;20159;-72
2021/09/29 13:15:52;;;;;;;3.10;0.98;;;;;;;9.83;59.81;101119.50;5021194;28;20044;-73
2021/09/29 13:18:26;;;;;;;3.95;1.20;;;;;;;10.09;59.20;101135.16;5021462;28;20044;-71
2021/09/29 13:21:07;;;;;;;1.27;0.80;;;;;;;10.78;57.37;101131.88;5018616;28;20029;-71
2021/09/29 13:23:37;;;;;;;1.60;0.52;;;;;;;10.64;57.70;101141.09;5018534;28;20033;-71
2021/09/29 13:36:51;;;;;;;3.55;0.93;;;;;;;10.70;57.38;101142.59;5019153;28;20761;-72
2021/09/29 13:39:18;;;;;;;2.67;0.88;;;;;;;10.80;57.32;101145.75;5013995;28;20330;-71
2021/09/29 13:41:47;;;;;;;4.03;1.15;;;;;;;10.42;57.99;101150.59;5017828;28;20041;-72
2021/09/29 13:44:14;;;;;;;2.03;0.90;;;;;;;10.46;58.02;101152.19;5019675;28;20391;-71
2021/09/29 13:46:40;;;;;;;0.93;0.30;;;;;;;10.08;58.46;101151.75;5018912;28;20518;-71
2021/09/29 13:49:08;;;;;;;0.50;0.20;;;;;;;9.36;60.07;101152.25;5020386;28;20037;-71
2021/09/29 13:51:36;;;;;;;2.22;0.68;;;;;;;10.09;57.99;101150.84;5021793;28;20439;-71
2021/09/29 13:54:09;;;;;;;1.15;0.40;;;;;;;9.54;58.99;101155.19;5021268;28;20076;-72
2021/09/29 14:31:45;;;;;;;0.32;0.10;;;;;;;11.44;52.82;101148.56;5016940;28;20065;-70
2021/09/29 14:34:10;;;;;;;0.17;0.05;;;;;;;11.05;53.51;101153.56;5018995;28;20080;-71
2021/09/29 14:36:36;;;;;;;1.77;0.03;;;;;;;10.63;54.04;101155.03;5018329;28;20479;-70